Time;durP1;ratioP1;P1;durP2;ratioP2;P2;SDS_P1;SDS_P2;PMS_P1;PMS_P2;Temp;Humidity;BMP_temperature;BMP_pressure;BME280_temperature;BME280_humidity;BME280_pressure;Samples;Min_cycle;Max_cycle;Signal;HPM_P1;HPM_P2
2022/06/24 00:02:21;;;;;;;3.23;0.77;;;22.90;91.90;;;;;;4970308;28;20200;-96
2022/06/24 00:05:17;;;;;;;1.57;0.50;;;23.10;91.30;;;;;;4971617;28;20207;-96
2022/06/24 00:08:12;;;;;;;3.53;0.60;;;23.30;92.00;;;;;;4963192;29;20216;-96
2022/06/24 00:10:53;;;;;;;1.93;0.70;;;23.20;91.40;;;;;;4971017;28;20255;-96
2022/06/24 00:14:01;;;;;;;3.47;0.57;;;23.20;90.90;;;;;;4977136;28;20272;-96
2022/06/24 00:16:42;;;;;;;2.60;0.60;;;23.20;90.50;;;;;;4975142;28;20196;-96
2022/06/24 00:19:20;;;;;;;2.60;1.00;;;22.80;91.20;;;;;;4978707;28;20222;-96
2022/06/24 00:28:14;;;;;;;1.80;0.70;;;23.30;94.50;;;;;;4968869;28;20333;-96
2022/06/24 00:31:05;;;;;;;1.17;0.60;;;23.50;91.20;;;;;;4963255;28;20573;-96
2022/06/24 00:33:46;;;;;;;0.63;0.60;;;23.30;87.70;;;;;;4962031;28;20579;-96
2022/06/24 00:36:19;;;;;;;1.97;0.80;;;23.20;86.80;;;;;;4963524;28;20595;-96
2022/06/24 00:39:05;;;;;;;1.73;0.60;;;23.10;90.00;;;;;;4970355;28;20239;-96
2022/06/24 00:41:41;;;;;;;0.53;0.40;;;23.10;85.80;;;;;;4969265;28;20238;-96
2022/06/24 00:44:40;;;;;;;2.73;0.70;;;22.90;78.60;;;;;;4968386;28;20565;-96
2022/06/24 00:53:50;;;;;;;25.80;3.13;;;22.70;83.00;;;;;;4967806;28;20215;-96
2022/06/24 00:56:41;;;;;;;3.33;1.87;;;22.90;90.30;;;;;;4966620;28;20248;-96
2022/06/24 00:59:15;;;;;;;1.47;0.73;;;23.70;88.90;;;;;;4963098;28;20407;-96
2022/06/24 01:04:49;;;;;;;1.77;0.97;;;23.90;88.40;;;;;;4963305;28;20220;-96
2022/06/24 01:07:21;;;;;;;3.57;0.50;;;24.40;88.40;;;;;;4961118;28;20220;-96
2022/06/24 01:09:54;;;;;;;2.83;0.70;;;24.40;86.50;;;;;;4960106;28;20262;-96
2022/06/24 01:12:25;;;;;;;1.10;0.50;;;25.20;88.30;;;;;;4961079;28;20211;-96
2022/06/24 01:14:57;;;;;;;1.37;0.50;;;25.70;84.50;;;;;;4962271;28;20220;-96
2022/06/24 01:17:43;;;;;;;1.23;0.70;;;25.60;83.40;;;;;;4976461;28;20203;-96
2022/06/24 01:20:22;;;;;;;1.60;0.70;;;25.80;84.90;;;;;;4977384;28;20234;-96
2022/06/24 01:23:23;;;;;;;1.03;0.50;;;26.00;82.00;;;;;;4978128;28;20203;-96
2022/06/24 01:26:10;;;;;;;0.90;0.43;;;25.80;78.50;;;;;;4976258;28;20243;-96
2022/06/24 01:28:41;;;;;;;3.23;0.80;;;25.20;79.70;;;;;;4975678;28;20215;-96
2022/06/24 01:34:03;;;;;;;3.37;0.63;;;25.10;81.70;;;;;;4962693;28;20226;-96
2022/06/24 01:36:34;;;;;;;1.27;0.60;;;25.40;79.70;;;;;;4960040;28;20215;-96
2022/06/24 01:39:09;;;;;;;0.67;0.60;;;25.80;79.30;;;;;;4960742;28;20246;-96
2022/06/24 01:41:44;;;;;;;1.17;0.50;;;26.00;78.40;;;;;;4962551;28;20258;-95
2022/06/24 01:44:16;;;;;;;1.20;0.50;;;26.30;75.50;;;;;;4961019;28;20601;-96
2022/06/24 01:46:51;;;;;;;1.33;0.80;;;26.50;74.50;;;;;;4960990;28;20235;-96
2022/06/24 01:49:30;;;;;;;1.10;0.50;;;26.80;73.80;;;;;;4962955;28;20671;-96
2022/06/24 01:52:03;;;;;;;0.63;0.40;;;26.70;71.30;;;;;;4960648;28;20208;-96
2022/06/24 01:54:42;;;;;;;0.80;0.60;;;26.60;68.80;;;;;;4960302;28;20211;-96
2022/06/24 01:57:16;;;;;;;1.00;0.63;;;26.60;68.90;;;;;;4946551;28;20354;-96
2022/06/24 01:59:48;;;;;;;1.97;0.70;;;26.80;69.00;;;;;;4941064;29;20300;-96
2022/06/24 02:02:23;;;;;;;1.27;0.50;;;26.30;71.80;;;;;;4941765;29;20216;-96
2022/06/24 02:04:56;;;;;;;2.17;0.63;;;26.50;70.30;;;;;;4954468;29;20254;-96
2022/06/24 02:07:45;;;;;;;0.77;0.40;;;26.50;71.30;;;;;;4966368;29;20238;-96
2022/06/24 02:13:31;;;;;;;1.67;0.50;;;24.60;75.50;;;;;;4946146;29;20209;-96
2022/06/24 02:16:07;;;;;;;1.40;0.70;;;24.70;71.40;;;;;;4952920;28;20212;-96
2022/06/24 02:18:41;;;;;;;1.00;0.50;;;25.50;71.80;;;;;;4947586;28;20609;-96
2022/06/24 02:21:14;;;;;;;1.30;0.53;;;25.20;71.80;;;;;;4947594;29;20220;-96
2022/06/24 02:23:54;;;;;;;2.00;0.60;;;24.50;71.50;;;;;;4949952;29;20275;-96
2022/06/24 02:41:00;;;;;;;2.17;0.60;;;20.60;77.40;;;;;;4962184;28;20636;-96
2022/06/24 02:43:39;;;;;;;1.90;0.50;;;20.40;77.50;;;;;;4964328;28;20215;-96
2022/06/24 02:46:13;;;;;;;3.27;0.80;;;20.10;79.20;;;;;;4964257;28;20250;-96
2022/06/24 02:57:03;;;;;;;1.23;0.50;;;19.70;83.20;;;;;;4964632;28;20207;-96
2022/06/24 02:59:35;;;;;;;1.47;0.60;;;19.70;83.70;;;;;;4967130;28;20699;-96
2022/06/24 03:02:08;;;;;;;1.70;0.53;;;19.70;85.80;;;;;;4964162;28;20251;-96
2022/06/24 03:04:41;;;;;;;3.33;0.97;;;19.60;84.50;;;;;;4968442;28;20306;-96
2022/06/24 03:07:17;;;;;;;2.87;0.77;;;19.50;86.10;;;;;;4972879;28;20208;-96
2022/06/24 03:09:53;;;;;;;4.00;0.43;;;19.50;85.50;;;;;;4980250;28;20238;-96
2022/06/24 03:12:35;;;;;;;3.67;0.70;;;19.40;86.80;;;;;;4980086;28;20192;-96
2022/06/24 04:02:57;;;;;;;1.30;0.67;;;17.10;95.40;;;;;;4956892;29;20208;-96
2022/06/24 04:09:41;;;;;;;2.97;0.77;;;16.90;97.70;;;;;;4957724;29;20208;-96
2022/06/24 04:15:17;;;;;;;2.70;0.60;;;16.60;98.00;;;;;;4944421;29;20231;-96
2022/06/24 04:17:51;;;;;;;1.60;0.53;;;16.60;98.60;;;;;;4945033;29;20219;-96
2022/06/24 04:20:24;;;;;;;2.10;0.87;;;16.50;99.60;;;;;;4943757;29;20250;-96
2022/06/24 04:23:10;;;;;;;1.23;0.80;;;16.40;99.90;;;;;;4944388;29;20215;-96
2022/06/24 04:25:45;;;;;;;1.67;0.53;;;16.30;99.90;;;;;;4944321;29;20200;-96
2022/06/24 04:28:26;;;;;;;1.50;0.57;;;16.20;99.90;;;;;;4946175;29;20212;-96
2022/06/24 04:31:16;;;;;;;1.73;0.80;;;16.10;99.90;;;;;;4945520;29;20205;-96
2022/06/24 04:33:53;;;;;;;2.50;0.53;;;16.00;99.90;;;;;;4945602;29;20216;-96
2022/06/24 04:36:39;;;;;;;3.80;0.70;;;15.90;99.90;;;;;;4945292;29;20212;-96
2022/06/24 04:39:12;;;;;;;2.53;0.77;;;15.70;99.90;;;;;;4944209;28;20299;-96
2022/06/24 04:41:53;;;;;;;1.07;0.47;;;15.60;99.90;;;;;;4923676;29;20249;-96
2022/06/24 04:44:27;;;;;;;2.23;0.67;;;15.60;99.90;;;;;;4923323;29;20224;-96
2022/06/24 04:47:05;;;;;;;1.70;0.67;;;15.60;99.90;;;;;;4924613;29;20264;-96
2022/06/24 04:49:58;;;;;;;2.37;0.80;;;15.50;99.90;;;;;;4922727;29;20284;-96
2022/06/24 04:52:30;;;;;;;1.23;0.60;;;15.50;99.90;;;;;;4925164;29;20221;-96
2022/06/24 04:55:04;;;;;;;1.80;0.70;;;15.40;99.90;;;;;;4925983;29;20622;-96
2022/06/24 05:00:38;;;;;;;1.73;0.63;;;15.20;99.90;;;;;;4924870;29;20237;-95
2022/06/24 05:03:14;;;;;;;2.60;0.60;;;15.10;99.90;;;;;;4926419;29;20292;-96
2022/06/24 05:05:47;;;;;;;2.00;0.70;;;15.00;99.90;;;;;;4928697;29;20204;-96
2022/06/24 05:08:18;;;;;;;1.50;0.67;;;14.90;99.90;;;;;;4935640;29;20265;-96
2022/06/24 05:10:53;;;;;;;3.63;0.97;;;14.80;99.90;;;;;;4942681;29;20216;-96
2022/06/24 05:13:26;;;;;;;0.93;0.63;;;14.80;99.90;;;;;;4948312;29;20291;-96
2022/06/24 05:16:00;;;;;;;1.07;0.60;;;14.70;99.90;;;;;;4945572;29;20216;-96
2022/06/24 05:18:55;;;;;;;1.77;0.67;;;14.60;99.90;;;;;;4958174;28;20228;-96
2022/06/24 05:21:31;;;;;;;2.43;0.67;;;14.40;99.90;;;;;;4958348;28;20232;-96
2022/06/24 05:24:08;;;;;;;3.27;0.80;;;14.40;99.90;;;;;;4958816;28;20256;-96
2022/06/24 05:26:42;;;;;;;2.50;0.53;;;14.30;99.90;;;;;;4958822;28;20200;-96
2022/06/24 05:29:15;;;;;;;2.50;0.80;;;14.20;99.90;;;;;;4958482;28;20299;-96
2022/06/24 05:31:48;;;;;;;2.00;0.67;;;14.20;99.90;;;;;;4958256;28;20231;-96
2022/06/24 05:34:22;;;;;;;1.77;0.60;;;14.20;99.90;;;;;;4958997;28;20193;-96
2022/06/24 05:36:57;;;;;;;1.00;0.70;;;14.10;99.90;;;;;;4958860;28;20216;-96
2022/06/24 05:39:31;;;;;;;2.30;0.70;;;14.10;99.90;;;;;;4960501;28;20227;-96
2022/06/24 05:42:04;;;;;;;1.90;0.70;;;14.10;99.90;;;;;;4977368;28;20200;-96
2022/06/24 05:44:41;;;;;;;2.07;0.87;;;14.10;99.90;;;;;;4978093;28;20196;-96
2022/06/24 05:47:15;;;;;;;4.20;0.63;;;14.10;99.90;;;;;;4978377;28;20190;-96
2022/06/24 05:49:58;;;;;;;3.93;1.00;;;14.00;99.90;;;;;;4977495;28;20203;-96
2022/06/24 05:55:20;;;;;;;3.73;1.00;;;13.90;99.90;;;;;;4970138;28;20282;-95
2022/06/24 05:57:53;;;;;;;2.00;0.80;;;13.90;99.90;;;;;;4969585;28;20210;-96
2022/06/24 06:00:27;;;;;;;2.97;0.90;;;13.80;99.90;;;;;;4969912;28;20282;-96
2022/06/24 06:03:02;;;;;;;4.50;1.10;;;13.80;99.90;;;;;;4969574;29;20286;-96
2022/06/24 06:05:52;;;;;;;3.07;1.00;;;13.70;99.90;;;;;;4969793;28;20270;-94
2022/06/24 06:08:24;;;;;;;1.60;0.50;;;13.70;99.90;;;;;;4967402;28;20227;-95
2022/06/24 06:10:59;;;;;;;2.50;0.80;;;13.60;99.90;;;;;;4966443;29;20609;-95
2022/06/24 06:13:36;;;;;;;2.83;0.87;;;13.60;99.90;;;;;;4967562;28;20223;-96
2022/06/24 06:22:20;;;;;;;1.30;0.90;;;13.50;99.90;;;;;;4977972;28;20196;-96
2022/06/24 06:31:07;;;;;;;3.23;0.70;;;13.50;99.90;;;;;;4976613;28;20239;-96
2022/06/24 06:36:31;;;;;;;1.00;0.80;;;13.40;99.90;;;;;;4970325;28;20243;-96
2022/06/24 06:42:55;;;;;;;1.70;0.80;;;13.40;99.90;;;;;;4947923;29;20236;-96
2022/06/24 06:45:27;;;;;;;3.47;1.00;;;13.30;99.90;;;;;;4960570;29;20200;-96
2022/06/24 06:48:00;;;;;;;2.53;0.97;;;13.30;99.90;;;;;;4961026;28;20224;-96
2022/06/24 06:50:32;;;;;;;2.47;1.10;;;13.20;99.90;;;;;;4960732;28;20219;-96
2022/06/24 06:53:10;;;;;;;1.77;1.00;;;13.20;99.90;;;;;;4961217;28;20212;-96
2022/06/24 06:55:44;;;;;;;1.60;1.00;;;13.10;99.90;;;;;;4960399;29;20196;-96
2022/06/24 06:58:21;;;;;;;4.40;0.93;;;13.00;99.90;;;;;;4959841;29;20243;-96
2022/06/24 07:00:55;;;;;;;2.40;0.93;;;12.90;99.90;;;;;;4957782;29;20236;-96
2022/06/24 07:03:31;;;;;;;3.13;1.00;;;12.80;99.90;;;;;;4982761;23;20251;-96
2022/06/24 07:06:05;;;;;;;4.70;1.00;;;12.80;99.90;;;;;;4947014;29;20308;-96
2022/06/24 07:08:47;;;;;;;1.20;0.70;;;12.70;99.90;;;;;;4946042;29;20238;-96
2022/06/24 07:11:21;;;;;;;3.00;0.80;;;12.60;99.90;;;;;;4944579;29;20259;-96
2022/06/24 07:13:57;;;;;;;4.17;1.20;;;12.60;99.90;;;;;;4945751;29;20236;-96
2022/06/24 07:16:28;;;;;;;1.87;0.70;;;12.60;99.90;;;;;;4945330;29;20211;-96
2022/06/24 07:19:09;;;;;;;1.40;0.70;;;12.50;99.90;;;;;;4945008;29;20223;-96
2022/06/24 07:21:44;;;;;;;3.27;0.60;;;12.50;99.90;;;;;;4943422;29;20317;-96
2022/06/24 07:24:19;;;;;;;3.60;1.10;;;12.50;99.90;;;;;;4943952;29;20238;-96
2022/06/24 07:26:51;;;;;;;3.47;1.07;;;12.50;99.90;;;;;;4943708;29;20212;-96
2022/06/24 07:29:25;;;;;;;3.27;0.90;;;12.50;99.90;;;;;;4941121;29;20264;-96
2022/06/24 07:31:57;;;;;;;2.57;0.80;;;12.50;99.90;;;;;;4922832;29;20253;-96
2022/06/24 07:37:24;;;;;;;2.20;0.90;;;12.40;99.90;;;;;;4928611;29;20209;-96
2022/06/24 07:39:57;;;;;;;4.43;0.93;;;12.40;99.90;;;;;;4937519;29;20220;-96
2022/06/24 07:42:31;;;;;;;1.93;0.97;;;12.40;99.90;;;;;;4872369;23;10002101;-96
2022/06/24 07:45:12;;;;;;;1.83;0.90;;;12.40;99.90;;;;;;4977952;28;20223;-94
2022/06/24 07:47:44;;;;;;;7.50;0.80;;;12.30;99.90;;;;;;4979340;28;20199;-96
2022/06/24 07:50:16;;;;;;;1.90;1.00;;;12.30;99.90;;;;;;4978693;28;20226;-96
2022/06/24 07:52:49;;;;;;;2.73;1.00;;;12.30;99.90;;;;;;4979390;28;20243;-96
2022/06/24 08:01:16;;;;;;;3.23;1.00;;;12.00;99.90;;;;;;4959197;28;20300;-96
2022/06/24 08:03:47;;;;;;;1.80;1.03;;;11.90;99.90;;;;;;4946971;29;20216;-96
2022/06/24 08:06:21;;;;;;;2.27;0.80;;;11.90;99.90;;;;;;4945300;29;20209;-96
2022/06/24 08:08:57;;;;;;;4.63;0.90;;;11.90;99.90;;;;;;4949720;28;20239;-96
2022/06/24 08:11:29;;;;;;;4.63;1.63;;;11.90;99.90;;;;;;4959038;28;20219;-96
2022/06/24 08:14:08;;;;;;;3.80;1.27;;;11.90;99.90;;;;;;4958815;28;20212;-96
2022/06/24 08:16:44;;;;;;;3.77;1.07;;;11.90;99.90;;;;;;4959678;28;20193;-95
2022/06/24 08:19:17;;;;;;;3.33;1.03;;;11.90;99.90;;;;;;4960235;28;20196;-96
2022/06/24 08:21:50;;;;;;;2.10;1.00;;;11.90;99.90;;;;;;4958763;28;20224;-96
2022/06/24 08:24:21;;;;;;;1.83;1.10;;;11.80;99.90;;;;;;4960094;28;20223;-96
2022/06/24 08:26:53;;;;;;;4.10;1.30;;;11.70;99.90;;;;;;4960212;28;20200;-96
2022/06/24 08:29:25;;;;;;;3.07;0.90;;;11.70;99.90;;;;;;4959324;28;20216;-96
2022/06/24 08:32:01;;;;;;;4.20;0.73;;;11.70;99.90;;;;;;4957963;29;20216;-96
2022/06/24 08:34:33;;;;;;;3.03;1.20;;;11.60;99.90;;;;;;4949565;29;20311;-96
2022/06/24 08:40:15;;;;;;;2.60;0.90;;;11.60;99.90;;;;;;4941413;29;20208;-96
2022/06/24 08:42:55;;;;;;;2.53;1.10;;;11.50;99.90;;;;;;4941733;29;20216;-96
2022/06/24 08:45:28;;;;;;;4.90;1.03;;;11.60;99.90;;;;;;4941549;29;20331;-96
2022/06/24 08:48:02;;;;;;;2.80;1.10;;;11.70;99.90;;;;;;4941098;29;20208;-96
2022/06/24 08:50:34;;;;;;;5.53;1.10;;;11.70;99.90;;;;;;4940286;29;20211;-96
2022/06/24 08:53:11;;;;;;;2.63;1.10;;;11.70;99.90;;;;;;4941386;29;20224;-96
2022/06/24 08:55:50;;;;;;;5.33;1.50;;;11.70;99.90;;;;;;4941650;29;20239;-96
2022/06/24 08:58:37;;;;;;;3.03;1.20;;;11.80;99.90;;;;;;4948534;28;20192;-96
2022/06/24 09:01:20;;;;;;;3.77;1.23;;;11.90;99.90;;;;;;4958211;28;20228;-96
2022/06/24 09:04:01;;;;;;;2.77;1.03;;;11.90;99.90;;;;;;4959046;28;20239;-96
2022/06/24 09:06:48;;;;;;;4.10;1.40;;;11.90;99.90;;;;;;4959206;28;20204;-96
2022/06/24 09:09:26;;;;;;;2.93;1.17;;;11.80;99.90;;;;;;4959307;28;20664;-96
2022/06/24 09:12:01;;;;;;;2.90;1.17;;;11.80;99.90;;;;;;4970793;28;20211;-96
2022/06/24 09:14:48;;;;;;;5.20;1.10;;;11.80;99.90;;;;;;4982275;28;20273;-96
2022/06/24 09:17:33;;;;;;;3.37;1.00;;;11.70;99.90;;;;;;4982997;28;20203;-96
2022/06/24 09:20:14;;;;;;;4.33;1.20;;;11.70;99.90;;;;;;4981795;28;20214;-96
2022/06/24 09:23:09;;;;;;;3.53;0.97;;;11.70;99.90;;;;;;4980985;28;20215;-96
2022/06/24 09:25:50;;;;;;;2.50;1.00;;;11.60;99.90;;;;;;4980917;28;20214;-96
2022/06/24 09:28:25;;;;;;;3.77;1.27;;;11.60;99.90;;;;;;4979048;28;20214;-96
2022/06/24 09:31:04;;;;;;;5.20;0.83;;;11.60;99.90;;;;;;4979772;28;20726;-96
2022/06/24 09:33:51;;;;;;;7.47;1.53;;;11.60;99.90;;;;;;4982578;28;20241;-96
2022/06/24 09:36:56;;;;;;;3.80;1.53;;;11.50;99.90;;;;;;4980918;28;20286;-96
2022/06/24 09:39:43;;;;;;;4.37;1.10;;;11.60;99.90;;;;;;4980984;28;20756;-96
2022/06/24 09:42:28;;;;;;;5.63;1.30;;;11.60;99.90;;;;;;4978848;28;20237;-96
2022/06/24 09:45:00;;;;;;;4.17;1.30;;;11.50;99.90;;;;;;4982555;28;20308;-96
2022/06/24 09:47:32;;;;;;;2.87;1.10;;;11.50;99.90;;;;;;4979145;28;20215;-96
2022/06/24 09:50:07;;;;;;;5.93;1.47;;;11.50;99.90;;;;;;4980981;28;20211;-96
2022/06/24 09:52:46;;;;;;;5.27;1.20;;;11.50;99.90;;;;;;4979477;28;20242;-96
2022/06/24 09:55:23;;;;;;;6.50;1.37;;;11.50;99.90;;;;;;4979004;28;20238;-96
2022/06/24 09:57:56;;;;;;;4.60;1.20;;;11.50;99.90;;;;;;4979296;28;20207;-96
2022/06/24 10:00:41;;;;;;;5.00;1.30;;;11.40;99.90;;;;;;4980617;28;20219;-96
2022/06/24 10:03:15;;;;;;;4.27;1.23;;;11.30;99.90;;;;;;4978808;28;20253;-96
2022/06/24 10:05:49;;;;;;;5.50;1.70;;;11.20;99.90;;;;;;4979764;28;20215;-96
2022/06/24 10:08:24;;;;;;;3.97;1.20;;;11.20;99.90;;;;;;4979002;28;20215;-96
2022/06/24 10:11:19;;;;;;;3.13;1.07;;;11.20;99.90;;;;;;4977280;28;20207;-96
2022/06/24 10:13:50;;;;;;;2.63;1.07;;;11.10;99.90;;;;;;4628936;28;10000148;-96
2022/06/24 10:16:24;;;;;;;4.97;1.00;;;11.00;99.90;;;;;;4939656;29;20209;-96
2022/06/24 10:18:58;;;;;;;4.10;1.30;;;10.90;99.90;;;;;;4939465;29;20207;-96
2022/06/24 10:21:32;;;;;;;4.60;1.40;;;10.90;99.90;;;;;;4938777;29;20240;-96
2022/06/24 10:24:13;;;;;;;5.93;1.10;;;10.80;99.90;;;;;;4938822;29;20271;-96
2022/06/24 10:26:55;;;;;;;3.40;1.10;;;10.80;99.90;;;;;;4939247;29;20204;-96
2022/06/24 10:29:33;;;;;;;7.73;1.47;;;10.80;99.90;;;;;;4939369;29;20224;-96
2022/06/24 10:32:10;;;;;;;5.73;1.33;;;10.80;99.90;;;;;;4938780;29;20728;-96
2022/06/24 10:34:45;;;;;;;5.77;1.27;;;10.80;99.90;;;;;;4940018;29;20215;-96
2022/06/24 10:37:36;;;;;;;3.83;1.07;;;10.80;99.90;;;;;;4939793;29;20216;-95
2022/06/24 10:40:09;;;;;;;4.17;1.20;;;10.70;99.90;;;;;;4939144;29;20619;-96
2022/06/24 10:43:07;;;;;;;4.00;1.10;;;10.70;99.90;;;;;;4941282;29;20232;-96
2022/06/24 10:45:38;;;;;;;4.43;1.27;;;10.60;99.90;;;;;;4948363;29;20216;-93
2022/06/24 10:48:12;;;;;;;4.00;1.13;;;10.60;99.90;;;;;;4950369;29;20673;-95
2022/06/24 10:50:48;;;;;;;4.03;1.30;;;10.60;99.90;;;;;;4946368;29;20267;-96
2022/06/24 10:53:21;;;;;;;2.97;1.03;;;10.60;99.90;;;;;;4942957;29;20220;-95
2022/06/24 10:55:54;;;;;;;4.17;1.30;;;10.50;99.90;;;;;;4943829;29;20208;-95
2022/06/24 10:58:28;;;;;;;3.37;1.30;;;10.50;99.90;;;;;;4943410;29;20232;-96
2022/06/24 11:01:00;;;;;;;5.77;1.40;;;10.50;99.90;;;;;;4943197;29;20212;-96
2022/06/24 11:03:43;;;;;;;5.83;1.73;;;10.50;99.90;;;;;;4942815;29;20243;-96
2022/06/24 11:06:15;;;;;;;5.30;1.30;;;10.40;99.90;;;;;;4943032;29;20219;-96
2022/06/24 11:08:56;;;;;;;5.20;1.50;;;10.40;99.90;;;;;;4944094;29;20223;-95
2022/06/24 11:11:41;;;;;;;3.80;1.33;;;10.40;99.90;;;;;;4947899;28;20309;-94
2022/06/24 11:14:32;;;;;;;8.00;1.70;;;10.30;99.90;;;;;;4962211;28;20203;-96
2022/06/24 11:17:10;;;;;;;4.07;1.43;;;10.30;99.90;;;;;;4962157;28;20287;-96
2022/06/24 11:19:47;;;;;;;4.07;1.20;;;10.30;99.90;;;;;;4961842;28;20233;-96
2022/06/24 11:22:20;;;;;;;4.07;1.20;;;10.30;99.90;;;;;;4961614;28;20239;-96
2022/06/24 11:24:53;;;;;;;2.63;1.03;;;10.10;99.90;;;;;;4961707;28;20212;-96
2022/06/24 11:27:34;;;;;;;3.87;1.37;;;10.20;99.90;;;;;;4961609;28;20212;-96
2022/06/24 11:30:12;;;;;;;4.27;1.00;;;10.20;99.90;;;;;;4961102;28;20215;-96
2022/06/24 11:32:56;;;;;;;2.97;1.20;;;10.20;99.90;;;;;;4961241;28;20213;-96
2022/06/24 11:35:30;;;;;;;4.57;1.17;;;10.20;99.90;;;;;;4961105;28;20218;-96
2022/06/24 11:38:08;;;;;;;3.23;1.20;;;10.20;99.90;;;;;;4961297;28;20611;-95
2022/06/24 11:40:45;;;;;;;4.43;1.30;;;10.10;99.90;;;;;;4961165;28;20204;-96
2022/06/24 11:43:20;;;;;;;3.87;1.00;;;10.10;99.90;;;;;;4963720;28;20266;-96
2022/06/24 11:45:57;;;;;;;4.03;1.20;;;10.10;99.90;;;;;;4962282;28;20222;-96
2022/06/24 11:48:30;;;;;;;5.43;1.50;;;10.10;99.90;;;;;;4963876;28;20222;-96
2022/06/24 11:51:02;;;;;;;1.47;1.00;;;10.00;99.90;;;;;;4962705;28;20216;-96
2022/06/24 11:56:22;;;;;;;7.27;1.40;;;9.90;99.90;;;;;;4963935;28;20220;-96
2022/06/24 11:58:59;;;;;;;4.03;1.03;;;10.00;99.90;;;;;;4966868;28;20214;-96
2022/06/24 12:01:38;;;;;;;4.73;1.27;;;10.00;99.90;;;;;;4963895;28;20670;-95
2022/06/24 12:04:11;;;;;;;2.80;1.37;;;10.00;99.90;;;;;;4966282;28;20247;-95
2022/06/24 12:06:46;;;;;;;4.20;1.03;;;10.00;99.90;;;;;;4962636;28;20209;-96
2022/06/24 12:09:19;;;;;;;5.03;1.17;;;9.90;99.90;;;;;;4960428;28;20691;-96
2022/06/24 12:11:51;;;;;;;3.43;1.17;;;9.90;99.90;;;;;;4960625;28;20219;-96
2022/06/24 12:14:24;;;;;;;4.40;1.30;;;9.90;99.90;;;;;;4961445;28;20231;-96
2022/06/24 12:17:00;;;;;;;5.97;1.30;;;9.90;99.90;;;;;;4961407;28;20219;-95
2022/06/24 12:19:34;;;;;;;2.23;1.20;;;9.90;99.90;;;;;;4970823;28;20259;-95
2022/06/24 12:22:11;;;;;;;7.93;1.67;;;9.90;99.90;;;;;;4977895;28;20192;-95
2022/06/24 12:24:42;;;;;;;3.97;1.20;;;9.90;99.90;;;;;;4978249;28;20258;-96
2022/06/24 12:27:14;;;;;;;6.23;1.67;;;9.80;99.90;;;;;;4976954;28;20219;-96
2022/06/24 12:29:51;;;;;;;4.23;1.30;;;9.80;99.90;;;;;;4977856;28;20243;-95
2022/06/24 12:32:27;;;;;;;3.50;1.40;;;9.80;99.90;;;;;;4978429;28;20215;-95
2022/06/24 12:34:58;;;;;;;4.50;1.40;;;9.90;99.90;;;;;;4971165;28;20672;-94
2022/06/24 12:37:34;;;;;;;3.47;1.07;;;9.90;99.90;;;;;;4963934;28;20231;-96
2022/06/24 12:40:07;;;;;;;3.93;1.30;;;9.90;99.90;;;;;;4960814;28;20243;-96
2022/06/24 12:42:39;;;;;;;3.07;1.30;;;9.90;99.90;;;;;;4960957;28;20979;-95
2022/06/24 12:45:11;;;;;;;2.97;1.37;;;9.90;99.90;;;;;;4961607;28;20259;-96
2022/06/24 12:50:44;;;;;;;2.13;1.30;;;9.90;99.90;;;;;;4959933;28;20203;-96
2022/06/24 12:53:25;;;;;;;4.23;1.30;;;9.90;99.90;;;;;;4962617;28;20703;-96
2022/06/24 12:56:08;;;;;;;7.13;1.37;;;9.90;99.90;;;;;;4962592;28;20641;-96
2022/06/24 12:58:40;;;;;;;2.37;1.20;;;9.90;99.90;;;;;;4961199;28;20211;-96
2022/06/24 13:01:11;;;;;;;5.47;1.10;;;10.00;99.90;;;;;;4960282;28;20274;-96
2022/06/24 13:03:46;;;;;;;5.10;1.13;;;10.00;99.90;;;;;;4960939;28;20235;-96
2022/06/24 13:06:22;;;;;;;5.77;1.30;;;10.00;99.90;;;;;;4960959;28;20578;-96
2022/06/24 13:08:55;;;;;;;4.40;1.20;;;10.00;99.90;;;;;;4942221;29;20212;-96
2022/06/24 13:11:38;;;;;;;2.80;1.03;;;10.00;99.90;;;;;;4939023;29;20277;-96
2022/06/24 13:14:10;;;;;;;3.57;1.27;;;10.00;99.90;;;;;;4940147;29;20264;-96
2022/06/24 13:16:44;;;;;;;3.23;1.20;;;10.00;99.90;;;;;;4940589;29;20252;-96
2022/06/24 13:19:19;;;;;;;4.80;1.73;;;10.10;99.90;;;;;;4940231;29;20208;-96
2022/06/24 13:21:54;;;;;;;1.33;0.80;;;10.10;99.90;;;;;;4939848;29;20240;-96
2022/06/24 13:24:32;;;;;;;5.13;1.10;;;10.10;99.90;;;;;;4939496;29;20236;-96
2022/06/24 13:27:09;;;;;;;3.23;1.10;;;10.20;99.90;;;;;;4939873;29;20212;-95
2022/06/24 13:29:45;;;;;;;3.13;1.27;;;10.30;99.90;;;;;;4940572;29;20224;-96
2022/06/24 13:32:19;;;;;;;5.00;1.17;;;10.30;99.90;;;;;;4942099;29;20207;-95
2022/06/24 13:34:59;;;;;;;5.97;1.57;;;10.40;99.90;;;;;;4951807;29;20665;-96
2022/06/24 13:37:42;;;;;;;3.43;1.40;;;10.40;99.90;;;;;;4948834;29;20211;-96
2022/06/24 13:40:16;;;;;;;2.80;1.00;;;10.40;99.90;;;;;;4941240;29;20212;-95
2022/06/24 13:42:50;;;;;;;2.50;0.90;;;10.50;99.90;;;;;;4943252;29;20224;-95
2022/06/24 13:45:27;;;;;;;2.33;1.10;;;10.60;99.90;;;;;;4940473;29;20220;-95
2022/06/24 13:47:59;;;;;;;2.17;0.93;;;10.60;99.90;;;;;;4940146;29;20227;-95
2022/06/24 13:50:34;;;;;;;3.03;1.20;;;10.70;99.90;;;;;;4939952;29;20204;-96
2022/06/24 13:53:08;;;;;;;4.70;1.20;;;10.70;99.90;;;;;;4942183;29;20216;-96
2022/06/24 13:55:40;;;;;;;3.87;1.33;;;10.80;99.90;;;;;;4942236;29;20212;-96
2022/06/24 13:58:16;;;;;;;2.37;1.00;;;10.90;99.90;;;;;;4945812;29;20598;-96
2022/06/24 14:00:49;;;;;;;4.57;1.10;;;10.90;99.90;;;;;;4952664;28;20219;-96
2022/06/24 14:03:24;;;;;;;3.73;1.00;;;10.90;99.90;;;;;;4977040;28;20232;-96
2022/06/24 14:06:09;;;;;;;1.43;0.90;;;11.00;99.90;;;;;;4975654;28;20242;-96
2022/06/24 14:08:42;;;;;;;3.37;0.80;;;11.10;99.90;;;;;;4957576;29;20212;-96
2022/06/24 14:11:17;;;;;;;4.00;1.30;;;11.10;99.90;;;;;;4950398;29;20208;-95
2022/06/24 14:13:50;;;;;;;3.07;1.10;;;11.20;99.90;;;;;;4945411;29;20212;-96
2022/06/24 14:16:21;;;;;;;4.50;1.20;;;11.40;99.90;;;;;;4946694;29;20200;-96
2022/06/24 14:19:15;;;;;;;1.87;1.10;;;11.40;99.90;;;;;;4944668;29;20216;-96
2022/06/24 14:21:59;;;;;;;3.93;1.30;;;11.50;99.90;;;;;;4945593;29;20211;-96
2022/06/24 14:24:32;;;;;;;1.57;0.90;;;11.60;99.90;;;;;;4963610;28;20240;-96
2022/06/24 14:27:22;;;;;;;3.80;0.97;;;11.60;99.90;;;;;;4947301;29;20224;-96
2022/06/24 14:29:59;;;;;;;2.17;1.13;;;11.70;99.90;;;;;;4942927;29;20271;-96
2022/06/24 14:42:04;;;;;;;7.47;1.23;;;12.10;99.90;;;;;;4971436;28;20245;-96
2022/06/24 15:00:26;;;;;;;1.80;1.07;;;16.30;99.90;;;;;;4992774;28;20234;-96
2022/06/24 15:38:12;;;;;;;3.87;1.20;;;17.40;99.90;;;;;;4961287;28;20200;-96
2022/06/24 15:40:54;;;;;;;2.77;1.20;;;17.00;99.90;;;;;;4960728;28;20251;-96
2022/06/24 16:15:49;;;;;;;1.33;0.70;;;16.00;99.90;;;;;;4927340;29;20288;-96
2022/06/24 16:18:37;;;;;;;2.47;0.90;;;15.90;99.90;;;;;;4943806;29;20208;-96
2022/06/24 16:21:24;;;;;;;1.97;0.80;;;15.90;99.90;;;;;;4945581;29;20216;-96
2022/06/24 16:24:15;;;;;;;2.93;1.03;;;16.00;99.90;;;;;;5291109;23;20244;-96
2022/06/24 16:30:30;;;;;;;3.47;1.10;;;16.20;99.90;;;;;;4959910;28;20252;-96
2022/06/24 16:33:31;;;;;;;2.57;0.77;;;16.20;99.90;;;;;;4960132;28;20185;-96
2022/06/24 16:39:17;;;;;;;4.47;1.20;;;16.10;99.90;;;;;;4956936;28;20216;-96
2022/06/24 16:41:50;;;;;;;2.43;0.80;;;16.20;99.90;;;;;;4944406;29;20631;-96
2022/06/24 16:44:36;;;;;;;2.30;0.80;;;16.30;99.90;;;;;;4944525;28;20243;-96
2022/06/24 16:47:13;;;;;;;3.53;1.23;;;16.40;99.90;;;;;;4944555;29;20211;-96
2022/06/24 16:49:53;;;;;;;3.90;1.10;;;16.50;99.90;;;;;;4942680;29;20626;-96
2022/06/24 16:55:13;;;;;;;2.17;0.77;;;16.70;99.90;;;;;;4944564;29;20256;-96
2022/06/24 16:58:02;;;;;;;3.03;1.00;;;16.80;99.90;;;;;;4944252;29;20685;-96
2022/06/24 17:00:41;;;;;;;2.97;0.90;;;16.90;99.90;;;;;;4942627;29;20246;-96
2022/06/24 17:03:26;;;;;;;2.43;1.00;;;17.00;99.90;;;;;;4953628;28;20310;-96
2022/06/24 17:06:12;;;;;;;2.03;0.90;;;17.00;99.90;;;;;;4953652;28;20244;-96
2022/06/24 17:08:44;;;;;;;2.23;0.90;;;17.10;99.90;;;;;;4946746;29;20212;-96
2022/06/24 17:11:23;;;;;;;2.73;0.80;;;17.10;99.90;;;;;;4942503;29;20274;-96
2022/06/24 17:13:56;;;;;;;1.33;0.80;;;17.30;99.90;;;;;;4946339;29;20216;-96
2022/06/24 17:16:34;;;;;;;1.90;0.80;;;17.40;99.90;;;;;;4950797;29;20224;-96
2022/06/24 17:19:25;;;;;;;1.77;0.70;;;17.50;99.90;;;;;;4947456;29;20207;-96
2022/06/24 17:25:30;;;;;;;2.40;0.80;;;17.70;99.90;;;;;;4948915;29;20220;-96
2022/06/24 17:28:04;;;;;;;2.70;0.70;;;17.90;99.90;;;;;;4947476;29;20204;-96
2022/06/24 17:30:43;;;;;;;3.83;0.80;;;18.00;99.90;;;;;;4949591;28;20215;-96
2022/06/24 17:33:26;;;;;;;4.43;1.00;;;18.00;99.90;;;;;;4949434;29;20291;-96
2022/06/24 17:36:00;;;;;;;3.03;0.77;;;18.10;99.90;;;;;;4946161;29;20212;-96
2022/06/24 17:41:30;;;;;;;3.03;0.90;;;18.10;99.90;;;;;;4946207;29;20217;-96
2022/06/24 17:59:56;;;;;;;1.90;0.80;;;18.80;99.90;;;;;;5479170;23;20726;-96
2022/06/24 18:02:28;;;;;;;3.03;0.90;;;18.80;99.90;;;;;;4978699;28;20226;-96
2022/06/24 18:05:07;;;;;;;0.90;0.60;;;18.90;99.90;;;;;;4981294;28;20226;-96
2022/06/24 18:10:27;;;;;;;1.10;0.70;;;18.90;99.90;;;;;;4981483;28;20227;-96